Gatineau, Canada
Current Conditions -  °F | °C
As of 12:00 PM on Friday 24 Oct 2014 (Local Time) from CYND Reporting Station
Scattered Clouds Scattered Clouds  
Wind Chill: 57°   Ceiling: Unl
Heat Index: 57°   Visibility: 15mi
Dew Point: 41°   Wind: 7mph
Humidity: 55%   Direction: 210°SSW
Pressure: 29.91"   Gusts: NA
Location:  45.48°N, 75.65°W
Report Text: CYND 241600Z 21006KT 15SM FEW100 SCT210 14/05 A2991 RMK AC1CI2 SLP128
Loading
Personal Weather Stations






























Interactive Weather Map
Tropical Storm Tracking
New forecast layout! Learn more

10-Day Weather Forecast

Advertisements
Track Severe Weather on mobile